sensor_id;sensor_type;location;lat;lon;timestamp;pressure;altitude;pressure_sealevel;temperature;humidity
20889;BME280;10604;51.976;7.594;2023-04-10T14:36:42;100573.66;;;19.21;28.89
20889;BME280;10604;51.976;7.594;2023-04-10T14:39:07;100552.47;;;19.17;29.97
20889;BME280;10604;51.976;7.594;2023-04-10T14:41:32;100562.00;;;19.09;29.88
20889;BME280;10604;51.976;7.594;2023-04-10T14:43:58;100538.56;;;19.12;30.13
20889;BME280;10604;51.976;7.594;2023-04-10T14:46:23;100536.44;;;19.17;30.85
20889;BME280;10604;51.976;7.594;2023-04-10T14:48:52;100530.84;;;19.08;30.10
20889;BME280;10604;51.976;7.594;2023-04-10T14:51:17;100520.78;;;19.11;28.92
20889;BME280;10604;51.976;7.594;2023-04-10T14:53:43;100513.94;;;18.95;29.32
20889;BME280;10604;51.976;7.594;2023-04-10T14:56:13;100514.81;;;18.95;30.63
20889;BME280;10604;51.976;7.594;2023-04-10T14:58:39;100519.72;;;19.01;30.17
20889;BME280;10604;51.976;7.594;2023-04-10T15:01:11;100519.72;;;19.01;31.00
20889;BME280;10604;51.976;7.594;2023-04-10T15:03:37;100503.47;;;19.04;31.18
20889;BME280;10604;51.976;7.594;2023-04-10T15:06:04;100499.38;;;18.86;30.28
20889;BME280;10604;51.976;7.594;2023-04-10T15:08:30;100496.09;;;18.83;29.93
20889;BME280;10604;51.976;7.594;2023-04-10T15:10:55;100503.25;;;18.82;31.35
20889;BME280;10604;51.976;7.594;2023-04-10T15:13:21;100499.59;;;18.83;32.09
20889;BME280;10604;51.976;7.594;2023-04-10T15:15:47;100494.72;;;19.02;30.44
20889;BME280;10604;51.976;7.594;2023-04-10T15:18:13;100505.94;;;18.95;30.69
20889;BME280;10604;51.976;7.594;2023-04-10T15:20:39;100506.13;;;19.04;31.38
20889;BME280;10604;51.976;7.594;2023-04-10T15:23:04;100492.56;;;18.82;30.90
20889;BME280;10604;51.976;7.594;2023-04-10T15:25:33;100493.06;;;18.74;31.05
20889;BME280;10604;51.976;7.594;2023-04-10T15:27:59;100487.81;;;18.73;31.91
20889;BME280;10604;51.976;7.594;2023-04-10T15:30:25;100487.28;;;18.68;31.97
20889;BME280;10604;51.976;7.594;2023-04-10T15:32:50;100484.09;;;18.49;32.29
20889;BME280;10604;51.976;7.594;2023-04-10T15:35:16;100476.72;;;18.39;32.69
20889;BME280;10604;51.976;7.594;2023-04-10T15:37:41;100468.06;;;18.49;33.31
20889;BME280;10604;51.976;7.594;2023-04-10T15:40:07;100470.38;;;18.40;32.96
20889;BME280;10604;51.976;7.594;2023-04-10T15:42:33;100458.81;;;18.27;32.85
20889;BME280;10604;51.976;7.594;2023-04-10T15:44:59;100453.28;;;18.30;32.90
20889;BME280;10604;51.976;7.594;2023-04-10T15:47:25;100448.22;;;18.53;33.52
20889;BME280;10604;51.976;7.594;2023-04-10T15:49:50;100444.91;;;18.22;33.67
20889;BME280;10604;51.976;7.594;2023-04-10T15:52:15;100435.84;;;17.98;33.50
20889;BME280;10604;51.976;7.594;2023-04-10T15:54:40;100444.63;;;18.00;33.91
20889;BME280;10604;51.976;7.594;2023-04-10T15:57:06;100449.13;;;18.12;34.17
20889;BME280;10604;51.976;7.594;2023-04-10T15:59:31;100451.97;;;18.23;34.47
20889;BME280;10604;51.976;7.594;2023-04-10T16:01:56;100437.25;;;18.30;34.29
20889;BME280;10604;51.976;7.594;2023-04-10T16:04:22;100435.03;;;18.37;33.87
20889;BME280;10604;51.976;7.594;2023-04-10T16:06:47;100433.81;;;18.28;34.06
20889;BME280;10604;51.976;7.594;2023-04-10T16:09:13;100428.47;;;18.28;34.53
20889;BME280;10604;51.976;7.594;2023-04-10T16:11:38;100422.94;;;18.31;34.51
20889;BME280;10604;51.976;7.594;2023-04-10T16:14:03;100405.91;;;18.20;35.44
20889;BME280;10604;51.976;7.594;2023-04-10T16:16:28;100404.75;;;18.11;34.97
20889;BME280;10604;51.976;7.594;2023-04-10T16:18:54;100402.44;;;18.05;35.79
20889;BME280;10604;51.976;7.594;2023-04-10T16:21:20;100403.13;;;17.82;35.41
20889;BME280;10604;51.976;7.594;2023-04-10T16:23:46;100400.59;;;17.93;36.18
20889;BME280;10604;51.976;7.594;2023-04-10T16:26:11;100397.44;;;17.74;35.58
20889;BME280;10604;51.976;7.594;2023-04-10T16:28:36;100391.75;;;17.66;36.64
20889;BME280;10604;51.976;7.594;2023-04-10T16:31:01;100395.16;;;17.68;35.82
20889;BME280;10604;51.976;7.594;2023-04-10T16:33:27;100389.94;;;17.66;35.14
20889;BME280;10604;51.976;7.594;2023-04-10T16:35:53;100385.81;;;17.75;35.17
20889;BME280;10604;51.976;7.594;2023-04-10T16:38:20;100383.59;;;17.81;34.71
20889;BME280;10604;51.976;7.594;2023-04-10T16:40:45;100376.84;;;17.76;35.18
20889;BME280;10604;51.976;7.594;2023-04-10T16:43:10;100377.22;;;17.70;34.84
20889;BME280;10604;51.976;7.594;2023-04-10T16:45:36;100366.97;;;17.64;36.57
20889;BME280;10604;51.976;7.594;2023-04-10T16:48:02;100364.88;;;17.69;36.11
20889;BME280;10604;51.976;7.594;2023-04-10T16:50:27;100356.75;;;17.70;36.06
20889;BME280;10604;51.976;7.594;2023-04-10T16:52:52;100341.59;;;17.71;35.94
20889;BME280;10604;51.976;7.594;2023-04-10T16:55:18;100342.97;;;17.64;36.71
20889;BME280;10604;51.976;7.594;2023-04-10T16:57:43;100338.22;;;17.54;36.04
20889;BME280;10604;51.976;7.594;2023-04-10T17:00:09;100336.13;;;17.45;35.87
20889;BME280;10604;51.976;7.594;2023-04-10T17:02:35;100339.16;;;17.53;35.98
20889;BME280;10604;51.976;7.594;2023-04-10T17:05:00;100319.31;;;17.57;36.72
20889;BME280;10604;51.976;7.594;2023-04-10T17:07:25;100312.94;;;17.33;36.63
20889;BME280;10604;51.976;7.594;2023-04-10T17:09:50;100304.31;;;17.42;36.71
20889;BME280;10604;51.976;7.594;2023-04-10T17:12:16;100297.69;;;17.35;36.68
20889;BME280;10604;51.976;7.594;2023-04-10T17:14:41;100300.19;;;17.24;37.76
20889;BME280;10604;51.976;7.594;2023-04-10T17:17:06;100297.00;;;17.19;37.73
20889;BME280;10604;51.976;7.594;2023-04-10T17:19:32;100287.63;;;17.26;37.91
20889;BME280;10604;51.976;7.594;2023-04-10T17:21:57;100278.88;;;17.24;37.34
20889;BME280;10604;51.976;7.594;2023-04-10T17:24:22;100269.66;;;17.15;37.77
20889;BME280;10604;51.976;7.594;2023-04-10T17:26:48;100265.22;;;17.29;37.20
20889;BME280;10604;51.976;7.594;2023-04-10T17:29:13;100273.53;;;17.24;37.32
20889;BME280;10604;51.976;7.594;2023-04-10T17:31:38;100262.69;;;17.13;37.76
20889;BME280;10604;51.976;7.594;2023-04-10T17:34:03;100261.56;;;17.17;38.05
20889;BME280;10604;51.976;7.594;2023-04-10T17:36:29;100255.84;;;17.23;38.72
20889;BME280;10604;51.976;7.594;2023-04-10T17:38:56;100245.16;;;17.23;37.28
20889;BME280;10604;51.976;7.594;2023-04-10T17:41:21;100252.50;;;17.19;37.36
20889;BME280;10604;51.976;7.594;2023-04-10T17:43:46;100258.13;;;17.15;37.78
20889;BME280;10604;51.976;7.594;2023-04-10T17:46:12;100257.47;;;17.26;38.37
20889;BME280;10604;51.976;7.594;2023-04-10T17:48:39;100267.47;;;17.08;38.39
20889;BME280;10604;51.976;7.594;2023-04-10T17:51:04;100266.94;;;17.03;38.67
20889;BME280;10604;51.976;7.594;2023-04-10T17:53:30;100254.56;;;17.29;37.98
20889;BME280;10604;51.976;7.594;2023-04-10T17:55:56;100266.31;;;17.26;38.26
20889;BME280;10604;51.976;7.594;2023-04-10T17:58:21;100269.94;;;17.25;39.83
20889;BME280;10604;51.976;7.594;2023-04-10T18:00:46;100287.16;;;17.19;39.80
20889;BME280;10604;51.976;7.594;2023-04-10T18:03:12;100284.03;;;17.13;41.72
20889;BME280;10604;51.976;7.594;2023-04-10T18:05:37;100288.75;;;16.95;43.88
20889;BME280;10604;51.976;7.594;2023-04-10T18:08:03;100293.22;;;16.80;46.25
20889;BME280;10604;51.976;7.594;2023-04-10T18:10:29;100300.66;;;16.61;49.82
20889;BME280;10604;51.976;7.594;2023-04-10T18:12:54;100306.13;;;16.30;49.98
20889;BME280;10604;51.976;7.594;2023-04-10T18:15:22;100306.09;;;16.16;51.85
20889;BME280;10604;51.976;7.594;2023-04-10T18:17:47;100318.88;;;15.95;53.50
20889;BME280;10604;51.976;7.594;2023-04-10T18:20:13;100315.59;;;15.60;58.20
20889;BME280;10604;51.976;7.594;2023-04-10T18:22:38;100325.56;;;15.41;57.64
20889;BME280;10604;51.976;7.594;2023-04-10T18:25:04;100334.47;;;15.40;60.99
20889;BME280;10604;51.976;7.594;2023-04-10T18:27:29;100342.94;;;15.15;62.75
20889;BME280;10604;51.976;7.594;2023-04-10T18:29:56;100335.47;;;14.90;64.68
20889;BME280;10604;51.976;7.594;2023-04-10T18:32:21;100328.94;;;14.80;65.27
20889;BME280;10604;51.976;7.594;2023-04-10T18:34:46;100322.56;;;14.67;68.97
20889;BME280;10604;51.976;7.594;2023-04-10T18:37:11;100321.50;;;14.54;68.79
20889;BME280;10604;51.976;7.594;2023-04-10T18:39:37;100325.44;;;14.46;70.80
20889;BME280;10604;51.976;7.594;2023-04-10T18:42:02;100330.88;;;14.43;73.04
20889;BME280;10604;51.976;7.594;2023-04-10T18:44:27;100324.03;;;14.39;73.09
20889;BME280;10604;51.976;7.594;2023-04-10T18:46:52;100324.03;;;14.39;72.30
20889;BME280;10604;51.976;7.594;2023-04-10T18:49:18;100321.22;;;14.25;72.73
20889;BME280;10604;51.976;7.594;2023-04-10T18:51:43;100322.31;;;14.38;74.08
20889;BME280;10604;51.976;7.594;2023-04-10T18:54:08;100327.84;;;14.34;74.49
20889;BME280;10604;51.976;7.594;2023-04-10T18:56:33;100334.53;;;14.24;75.63
20889;BME280;10604;51.976;7.594;2023-04-10T18:58:59;100331.53;;;13.97;75.80
20889;BME280;10604;51.976;7.594;2023-04-10T19:01:25;100328.88;;;13.97;75.92
20889;BME280;10604;51.976;7.594;2023-04-10T19:03:50;100329.47;;;14.02;76.53
20889;BME280;10604;51.976;7.594;2023-04-10T19:06:17;100333.69;;;13.89;76.28
20889;BME280;10604;51.976;7.594;2023-04-10T19:08:47;100321.78;;;13.97;77.37
20889;BME280;10604;51.976;7.594;2023-04-10T19:11:12;100325.59;;;13.92;77.13
20889;BME280;10604;51.976;7.594;2023-04-10T19:13:38;100319.09;;;13.80;76.60
20889;BME280;10604;51.976;7.594;2023-04-10T19:16:03;100316.50;;;13.79;77.63
20889;BME280;10604;51.976;7.594;2023-04-10T19:18:28;100305.47;;;13.88;78.34
20889;BME280;10604;51.976;7.594;2023-04-10T19:20:53;100300.63;;;13.79;78.58
20889;BME280;10604;51.976;7.594;2023-04-10T19:23:19;100296.25;;;13.60;78.48
20889;BME280;10604;51.976;7.594;2023-04-10T19:25:45;100298.41;;;13.52;79.15
20889;BME280;10604;51.976;7.594;2023-04-10T19:28:10;100295.78;;;13.69;79.10
20889;BME280;10604;51.976;7.594;2023-04-10T19:30:35;100290.50;;;13.69;79.21
20889;BME280;10604;51.976;7.594;2023-04-10T19:33:00;100289.09;;;13.62;80.25
20889;BME280;10604;51.976;7.594;2023-04-10T19:35:26;100289.09;;;13.62;80.53
20889;BME280;10604;51.976;7.594;2023-04-10T19:37:51;100292.66;;;13.61;80.31
20889;BME280;10604;51.976;7.594;2023-04-10T19:40:19;100287.38;;;13.61;80.90
20889;BME280;10604;51.976;7.594;2023-04-10T19:42:45;100288.28;;;13.60;81.04
20889;BME280;10604;51.976;7.594;2023-04-10T19:45:10;100296.72;;;13.68;81.03
20889;BME280;10604;51.976;7.594;2023-04-10T19:47:36;100287.50;;;13.58;81.09
20889;BME280;10604;51.976;7.594;2023-04-10T19:50:01;100291.25;;;13.54;81.02
20889;BME280;10604;51.976;7.594;2023-04-10T19:52:26;100276.44;;;13.67;81.20
20889;BME280;10604;51.976;7.594;2023-04-10T19:54:52;100266.56;;;13.71;81.18
20889;BME280;10604;51.976;7.594;2023-04-10T19:57:17;100265.16;;;13.81;81.09
20889;BME280;10604;51.976;7.594;2023-04-10T19:59:42;100270.53;;;13.80;80.85
20889;BME280;10604;51.976;7.594;2023-04-10T20:02:07;100274.59;;;13.69;80.82
20889;BME280;10604;51.976;7.594;2023-04-10T20:04:34;100285.19;;;13.69;81.08
20889;BME280;10604;51.976;7.594;2023-04-10T20:06:59;100296.78;;;13.67;80.97
20889;BME280;10604;51.976;7.594;2023-04-10T20:09:25;100300.78;;;13.76;80.45
20889;BME280;10604;51.976;7.594;2023-04-10T20:11:50;100297.66;;;13.67;81.77
20889;BME280;10604;51.976;7.594;2023-04-10T20:14:15;100312.75;;;13.48;82.48
20889;BME280;10604;51.976;7.594;2023-04-10T20:16:41;100309.75;;;13.37;83.60
20889;BME280;10604;51.976;7.594;2023-04-10T20:19:06;100310.34;;;13.25;85.24
20889;BME280;10604;51.976;7.594;2023-04-10T20:21:31;100311.84;;;13.12;86.55
20889;BME280;10604;51.976;7.594;2023-04-10T20:23:57;100307.78;;;13.23;86.60
20889;BME280;10604;51.976;7.594;2023-04-10T20:26:22;100295.16;;;13.10;87.06
20889;BME280;10604;51.976;7.594;2023-04-10T20:28:53;100291.31;;;12.98;87.75
20889;BME280;10604;51.976;7.594;2023-04-10T20:31:19;100289.38;;;13.02;88.19
20889;BME280;10604;51.976;7.594;2023-04-10T20:33:44;100282.84;;;13.09;88.23
20889;BME280;10604;51.976;7.594;2023-04-10T20:36:10;100267.56;;;12.97;88.22
20889;BME280;10604;51.976;7.594;2023-04-10T20:38:35;100257.47;;;13.05;88.74
20889;BME280;10604;51.976;7.594;2023-04-10T20:41:01;100256.84;;;13.00;89.35
20889;BME280;10604;51.976;7.594;2023-04-10T20:43:27;100237.50;;;12.98;89.45
20889;BME280;10604;51.976;7.594;2023-04-10T20:45:53;100245.09;;;12.86;89.92
20889;BME280;10604;51.976;7.594;2023-04-10T20:48:18;100247.72;;;12.86;89.81
20889;BME280;10604;51.976;7.594;2023-04-10T20:50:44;100233.19;;;12.95;89.74
20889;BME280;10604;51.976;7.594;2023-04-10T20:53:10;100229.34;;;13.02;89.27
20889;BME280;10604;51.976;7.594;2023-04-10T20:55:37;100249.25;;;12.92;89.99
20889;BME280;10604;51.976;7.594;2023-04-10T20:58:03;100244.59;;;12.97;90.11
20889;BME280;10604;51.976;7.594;2023-04-10T21:00:29;100229.25;;;13.04;90.25
20889;BME280;10604;51.976;7.594;2023-04-10T21:02:55;100220.75;;;13.16;89.11
20889;BME280;10604;51.976;7.594;2023-04-10T21:05:21;100223.56;;;13.13;89.87
20889;BME280;10604;51.976;7.594;2023-04-10T21:07:46;100231.78;;;13.07;90.04
20889;BME280;10604;51.976;7.594;2023-04-10T21:10:11;100230.19;;;13.03;89.23
20889;BME280;10604;51.976;7.594;2023-04-10T21:12:37;100242.09;;;13.13;89.55
20889;BME280;10604;51.976;7.594;2023-04-10T21:15:02;100243.91;;;13.11;89.26
20889;BME280;10604;51.976;7.594;2023-04-10T21:17:27;100246.03;;;12.85;89.56
20889;BME280;10604;51.976;7.594;2023-04-10T21:19:55;100232.22;;;12.98;89.09
20889;BME280;10604;51.976;7.594;2023-04-10T21:22:20;100239.34;;;12.95;89.10
20889;BME280;10604;51.976;7.594;2023-04-10T21:24:46;100252.69;;;12.75;88.81
20889;BME280;10604;51.976;7.594;2023-04-10T21:27:11;100219.09;;;12.94;88.06
20889;BME280;10604;51.976;7.594;2023-04-10T21:29:36;100222.78;;;12.73;87.80
20889;BME280;10604;51.976;7.594;2023-04-10T21:32:01;100232.38;;;12.76;87.25
20889;BME280;10604;51.976;7.594;2023-04-10T21:34:27;100223.38;;;12.61;87.16
20889;BME280;10604;51.976;7.594;2023-04-10T21:36:52;100212.44;;;12.69;87.58
20889;BME280;10604;51.976;7.594;2023-04-10T21:39:18;100193.06;;;12.49;87.44
20889;BME280;10604;51.976;7.594;2023-04-10T21:41:43;100191.75;;;12.58;87.49
20889;BME280;10604;51.976;7.594;2023-04-10T21:44:09;100191.03;;;12.73;86.88
20889;BME280;10604;51.976;7.594;2023-04-10T21:46:34;100184.47;;;12.63;87.10
20889;BME280;10604;51.976;7.594;2023-04-10T21:48:59;100162.78;;;12.74;87.08
20889;BME280;10604;51.976;7.594;2023-04-10T21:51:25;100137.16;;;12.74;86.06
20889;BME280;10604;51.976;7.594;2023-04-10T21:53:51;100116.94;;;12.73;85.79
20889;BME280;10604;51.976;7.594;2023-04-10T21:56:16;100148.75;;;12.36;86.21
20889;BME280;10604;51.976;7.594;2023-04-10T21:58:42;100155.16;;;12.30;86.50
20889;BME280;10604;51.976;7.594;2023-04-10T22:01:07;100145.44;;;12.31;86.78
20889;BME280;10604;51.976;7.594;2023-04-10T22:03:32;100128.13;;;12.24;86.72
20889;BME280;10604;51.976;7.594;2023-04-10T22:05:58;100143.72;;;12.30;86.36
20889;BME280;10604;51.976;7.594;2023-04-10T22:08:23;100151.19;;;12.22;86.45
20889;BME280;10604;51.976;7.594;2023-04-10T22:10:48;100161.47;;;12.28;85.66
20889;BME280;10604;51.976;7.594;2023-04-10T22:13:14;100137.66;;;12.28;85.76
20889;BME280;10604;51.976;7.594;2023-04-10T22:15:39;100100.56;;;12.29;85.32
20889;BME280;10604;51.976;7.594;2023-04-10T22:18:05;100105.56;;;12.16;85.12
20889;BME280;10604;51.976;7.594;2023-04-10T22:20:30;100130.72;;;12.06;85.31
20889;BME280;10604;51.976;7.594;2023-04-10T22:22:55;100139.28;;;12.11;85.30
20889;BME280;10604;51.976;7.594;2023-04-10T22:25:21;100160.38;;;12.13;85.08
20889;BME280;10604;51.976;7.594;2023-04-10T22:27:46;100146.88;;;12.00;85.59
20889;BME280;10604;51.976;7.594;2023-04-10T22:30:12;100162.00;;;11.97;86.11
20889;BME280;10604;51.976;7.594;2023-04-10T22:32:37;100170.72;;;11.99;86.05
20889;BME280;10604;51.976;7.594;2023-04-10T22:35:03;100162.72;;;12.00;85.83
20889;BME280;10604;51.976;7.594;2023-04-10T22:37:28;100154.72;;;12.02;85.39
20889;BME280;10604;51.976;7.594;2023-04-10T22:39:54;100162.84;;;11.97;85.71
20889;BME280;10604;51.976;7.594;2023-04-10T22:42:25;100168.81;;;11.82;85.62
20889;BME280;10604;51.976;7.594;2023-04-10T22:44:51;100167.56;;;12.09;85.48
20889;BME280;10604;51.976;7.594;2023-04-10T22:47:16;100176.59;;;12.05;85.60
20889;BME280;10604;51.976;7.594;2023-04-10T22:49:41;100163.41;;;11.85;85.72
20889;BME280;10604;51.976;7.594;2023-04-10T22:52:07;100156.13;;;11.90;85.94
20889;BME280;10604;51.976;7.594;2023-04-10T22:54:32;100155.22;;;11.71;85.91
20889;BME280;10604;51.976;7.594;2023-04-10T22:56:57;100133.84;;;11.96;85.89
20889;BME280;10604;51.976;7.594;2023-04-10T22:59:22;100119.41;;;11.84;85.99
20889;BME280;10604;51.976;7.594;2023-04-10T23:01:48;100120.06;;;11.89;85.71
20889;BME280;10604;51.976;7.594;2023-04-10T23:04:13;100138.94;;;12.00;86.18
20889;BME280;10604;51.976;7.594;2023-04-10T23:06:38;100122.97;;;11.83;85.96
20889;BME280;10604;51.976;7.594;2023-04-10T23:09:04;100116.19;;;11.77;86.79
20889;BME280;10604;51.976;7.594;2023-04-10T23:11:29;100100.41;;;11.76;86.30
20889;BME280;10604;51.976;7.594;2023-04-10T23:13:54;100092.34;;;11.98;86.26
20889;BME280;10604;51.976;7.594;2023-04-10T23:16:20;100094.44;;;11.91;85.44
20889;BME280;10604;51.976;7.594;2023-04-10T23:18:45;100112.13;;;11.89;85.21
20889;BME280;10604;51.976;7.594;2023-04-10T23:21:10;100102.97;;;11.77;85.40
20889;BME280;10604;51.976;7.594;2023-04-10T23:23:35;100083.13;;;11.88;85.20
20889;BME280;10604;51.976;7.594;2023-04-10T23:26:01;100080.72;;;11.83;85.24
20889;BME280;10604;51.976;7.594;2023-04-10T23:28:26;100065.25;;;11.74;84.51
20889;BME280;10604;51.976;7.594;2023-04-10T23:30:51;100061.34;;;11.83;84.58
20889;BME280;10604;51.976;7.594;2023-04-10T23:33:17;100074.28;;;11.89;84.26
20889;BME280;10604;51.976;7.594;2023-04-10T23:35:42;100072.16;;;11.78;83.87
20889;BME280;10604;51.976;7.594;2023-04-10T23:38:07;100101.97;;;11.80;84.04
20889;BME280;10604;51.976;7.594;2023-04-10T23:40:33;100091.69;;;11.74;84.03
20889;BME280;10604;51.976;7.594;2023-04-10T23:42:58;100095.91;;;11.78;84.10
20889;BME280;10604;51.976;7.594;2023-04-10T23:45:23;100104.72;;;11.97;83.69
20889;BME280;10604;51.976;7.594;2023-04-10T23:47:48;100112.28;;;11.86;83.37
20889;BME280;10604;51.976;7.594;2023-04-10T23:50:14;100096.00;;;11.95;83.89
20889;BME280;10604;51.976;7.594;2023-04-10T23:52:39;100104.19;;;11.89;83.35
20889;BME280;10604;51.976;7.594;2023-04-10T23:55:04;100106.00;;;12.07;82.91
20889;BME280;10604;51.976;7.594;2023-04-10T23:57:30;100106.44;;;11.98;83.05
20889;BME280;10604;51.976;7.594;2023-04-10T23:59:55;100105.41;;;12.01;82.51
